AXM727 WMKK-WSSS
Flight info
| Callsign | AXM727 |
|---|---|
| Flight time | 0h 35m |
| Altitude | 27000 |
| Route | RUSBU1E RUSBU Y511 TOPOR A464 ARAMA DCT TEBUN TEBUN1B |
| Aircraft | A20N/M-SDE2E3FGHIRWXY/LB1 |
Departure
| Time | 2026-05-06 14:29 |
|---|---|
| Airport | Kuala Lumpur International Airport (WMKK) |
Arrival
| Time | 2026-05-06 15:04 |
|---|---|
| Airport | Singapore Changi Airport (WSSS) |
| Time | Latitude | Longitude | Altitude | Speed | Heading |
|---|---|---|---|---|---|
| 2026-05-06 14:08 | 2.74084 | 101.68336 | 61 ft | 0 kts | 146° |
| 2026-05-06 14:17 | 2.74090 | 101.68332 | 61 ft | 2 kts | 146° |
| 2026-05-06 14:18 | 2.74104 | 101.68323 | 52 ft | 2 kts | 149° |
| 2026-05-06 14:18 | 2.74118 | 101.68315 | 54 ft | 2 kts | 156° |
| 2026-05-06 14:18 | 2.74134 | 101.68313 | 58 ft | 2 kts | 223° |
| 2026-05-06 14:18 | 2.74138 | 101.68318 | 54 ft | 0 kts | 236° |
| 2026-05-06 14:23 | 2.74113 | 101.68281 | 56 ft | 19 kts | 236° |
| 2026-05-06 14:23 | 2.74002 | 101.68121 | 61 ft | 21 kts | 234° |
| 2026-05-06 14:23 | 2.73929 | 101.68026 | 58 ft | 16 kts | 197° |
| 2026-05-06 14:24 | 2.73843 | 101.68068 | 57 ft | 17 kts | 147° |
| 2026-05-06 14:24 | 2.73714 | 101.68155 | 60 ft | 28 kts | 146° |
| 2026-05-06 14:24 | 2.73529 | 101.68280 | 59 ft | 35 kts | 146° |
| 2026-05-06 14:24 | 2.73333 | 101.68412 | 60 ft | 34 kts | 146° |
| 2026-05-06 14:25 | 2.73135 | 101.68544 | 56 ft | 34 kts | 146° |
| 2026-05-06 14:25 | 2.72938 | 101.68676 | 56 ft | 34 kts | 146° |
| 2026-05-06 14:25 | 2.72742 | 101.68809 | 58 ft | 34 kts | 146° |
| 2026-05-06 14:25 | 2.72547 | 101.68943 | 55 ft | 34 kts | 143° |
| 2026-05-06 14:26 | 2.72356 | 101.69074 | 57 ft | 33 kts | 146° |
| 2026-05-06 14:26 | 2.72164 | 101.69201 | 55 ft | 33 kts | 147° |
| 2026-05-06 14:26 | 2.71975 | 101.69328 | 59 ft | 33 kts | 146° |
| 2026-05-06 14:26 | 2.71851 | 101.69389 | 57 ft | 14 kts | 179° |
| 2026-05-06 14:27 | 2.71785 | 101.69331 | 58 ft | 13 kts | 233° |
| 2026-05-06 14:27 | 2.71753 | 101.69279 | 59 ft | 0 kts | 255° |
| 2026-05-06 14:27 | 2.71752 | 101.69270 | 60 ft | 5 kts | 270° |
| 2026-05-06 14:28 | 2.71774 | 101.69204 | 62 ft | 16 kts | 299° |
| 2026-05-06 14:28 | 2.71857 | 101.69083 | 55 ft | 22 kts | 305° |
| 2026-05-06 14:28 | 2.71976 | 101.68986 | 60 ft | 30 kts | 326° |
| 2026-05-06 14:28 | 2.72355 | 101.68732 | 57 ft | 98 kts | 326° |
| 2026-05-06 14:29 | 2.73087 | 101.68244 | 55 ft | 151 kts | 327° |
| 2026-05-06 14:29 | 2.73946 | 101.67666 | 613 ft | 141 kts | 327° |
| 2026-05-06 14:29 | 2.74775 | 101.67114 | 1042 ft | 147 kts | 329° |
| 2026-05-06 14:29 | 2.75664 | 101.66541 | 1449 ft | 158 kts | 323° |
| 2026-05-06 14:30 | 2.76193 | 101.65569 | 1751 ft | 172 kts | 277° |
| 2026-05-06 14:30 | 2.76251 | 101.64280 | 2011 ft | 201 kts | 268° |
| 2026-05-06 14:30 | 2.76226 | 101.62812 | 2356 ft | 223 kts | 268° |
| 2026-05-06 14:30 | 2.76218 | 101.61223 | 2822 ft | 241 kts | 269° |
| 2026-05-06 14:31 | 2.76237 | 101.59455 | 3234 ft | 264 kts | 270° |
| 2026-05-06 14:31 | 2.76159 | 101.57585 | 3731 ft | 273 kts | 255° |
| 2026-05-06 14:31 | 2.75266 | 101.55953 | 3965 ft | 270 kts | 222° |
| 2026-05-06 14:31 | 2.73641 | 101.55093 | 3993 ft | 266 kts | 188° |
| 2026-05-06 14:32 | 2.71843 | 101.55330 | 4216 ft | 266 kts | 155° |
| 2026-05-06 14:32 | 2.70193 | 101.56196 | 4963 ft | 269 kts | 146° |
| 2026-05-06 14:32 | 2.68770 | 101.57416 | 5805 ft | 271 kts | 133° |
| 2026-05-06 14:32 | 2.67544 | 101.58865 | 6602 ft | 275 kts | 128° |
| 2026-05-06 14:33 | 2.66397 | 101.60375 | 7393 ft | 276 kts | 126° |
| 2026-05-06 14:33 | 2.65262 | 101.61932 | 8238 ft | 278 kts | 126° |
| 2026-05-06 14:33 | 2.64125 | 101.63521 | 8992 ft | 284 kts | 125° |
| 2026-05-06 14:33 | 2.62976 | 101.65141 | 9786 ft | 287 kts | 125° |
| 2026-05-06 14:34 | 2.61798 | 101.66806 | 10278 ft | 301 kts | 125° |
| 2026-05-06 14:34 | 2.60548 | 101.68578 | 10539 ft | 322 kts | 125° |
| 2026-05-06 14:34 | 2.59219 | 101.70462 | 10789 ft | 341 kts | 125° |
| 2026-05-06 14:34 | 2.57818 | 101.72452 | 11043 ft | 358 kts | 125° |
| 2026-05-06 14:35 | 2.56357 | 101.74526 | 11453 ft | 367 kts | 125° |
| 2026-05-06 14:35 | 2.54876 | 101.76626 | 11982 ft | 372 kts | 124° |
| 2026-05-06 14:35 | 2.53383 | 101.78742 | 12562 ft | 375 kts | 124° |
| 2026-05-06 14:35 | 2.51891 | 101.80857 | 13157 ft | 377 kts | 124° |
| 2026-05-06 14:36 | 2.50374 | 101.83009 | 13748 ft | 380 kts | 124° |
| 2026-05-06 14:36 | 2.48843 | 101.85180 | 14282 ft | 384 kts | 124° |
| 2026-05-06 14:36 | 2.47299 | 101.87370 | 14822 ft | 386 kts | 124° |
| 2026-05-06 14:36 | 2.45740 | 101.89581 | 15358 ft | 389 kts | 124° |
| 2026-05-06 14:37 | 2.44175 | 101.91801 | 15902 ft | 392 kts | 124° |
| 2026-05-06 14:37 | 2.42595 | 101.94041 | 16442 ft | 395 kts | 124° |
| 2026-05-06 14:37 | 2.41006 | 101.96295 | 16962 ft | 398 kts | 124° |
| 2026-05-06 14:37 | 2.39400 | 101.98572 | 17460 ft | 401 kts | 124° |
| 2026-05-06 14:38 | 2.37787 | 102.00859 | 17956 ft | 404 kts | 124° |
| 2026-05-06 14:38 | 2.36159 | 102.03169 | 18390 ft | 407 kts | 124° |
| 2026-05-06 14:38 | 2.34523 | 102.05488 | 18777 ft | 409 kts | 124° |
| 2026-05-06 14:38 | 2.32874 | 102.07826 | 19158 ft | 412 kts | 124° |
| 2026-05-06 14:39 | 2.31219 | 102.10173 | 19527 ft | 414 kts | 124° |
| 2026-05-06 14:39 | 2.29575 | 102.12503 | 19878 ft | 416 kts | 124° |
| 2026-05-06 14:39 | 2.27901 | 102.14876 | 20231 ft | 418 kts | 124° |
| 2026-05-06 14:39 | 2.26220 | 102.17260 | 20587 ft | 421 kts | 124° |
| 2026-05-06 14:40 | 2.24530 | 102.19655 | 20834 ft | 422 kts | 124° |
| 2026-05-06 14:40 | 2.22835 | 102.22058 | 20881 ft | 422 kts | 124° |
| 2026-05-06 14:40 | 2.21141 | 102.24458 | 20884 ft | 423 kts | 124° |
| 2026-05-06 14:40 | 2.19442 | 102.26867 | 20883 ft | 423 kts | 124° |
| 2026-05-06 14:41 | 2.17745 | 102.29271 | 20883 ft | 423 kts | 124° |
| 2026-05-06 14:41 | 2.16049 | 102.31675 | 20883 ft | 423 kts | 124° |
| 2026-05-06 14:41 | 2.14352 | 102.34080 | 20890 ft | 423 kts | 124° |
| 2026-05-06 14:41 | 2.12655 | 102.36484 | 20889 ft | 423 kts | 124° |
| 2026-05-06 14:42 | 2.10959 | 102.38888 | 20890 ft | 423 kts | 124° |
| 2026-05-06 14:42 | 2.09263 | 102.41291 | 20889 ft | 423 kts | 124° |
| 2026-05-06 14:42 | 2.07565 | 102.43698 | 20886 ft | 423 kts | 124° |
| 2026-05-06 14:42 | 2.05889 | 102.46071 | 20886 ft | 423 kts | 124° |
| 2026-05-06 14:43 | 2.04171 | 102.48506 | 20883 ft | 423 kts | 124° |
| 2026-05-06 14:43 | 2.02495 | 102.50876 | 20886 ft | 423 kts | 124° |
| 2026-05-06 14:43 | 2.00756 | 102.53258 | 21143 ft | 426 kts | 125° |
| 2026-05-06 14:43 | 1.98974 | 102.55640 | 21550 ft | 427 kts | 126° |
| 2026-05-06 14:44 | 1.97178 | 102.58014 | 21927 ft | 429 kts | 126° |
| 2026-05-06 14:44 | 1.95374 | 102.60390 | 22289 ft | 431 kts | 126° |
| 2026-05-06 14:44 | 1.93554 | 102.62789 | 22659 ft | 433 kts | 126° |
| 2026-05-06 14:45 | 1.89907 | 102.67612 | 22873 ft | 435 kts | 126° |
| 2026-05-06 14:45 | 1.88084 | 102.70028 | 22883 ft | 435 kts | 126° |
| 2026-05-06 14:45 | 1.86257 | 102.72453 | 22876 ft | 436 kts | 126° |
| 2026-05-06 14:45 | 1.84433 | 102.74874 | 22880 ft | 436 kts | 126° |
| 2026-05-06 14:46 | 1.82633 | 102.77264 | 22881 ft | 436 kts | 126° |
| 2026-05-06 14:46 | 1.80809 | 102.79685 | 22874 ft | 436 kts | 126° |
| 2026-05-06 14:46 | 1.78986 | 102.82106 | 22876 ft | 436 kts | 126° |
| 2026-05-06 14:46 | 1.77158 | 102.84531 | 22876 ft | 436 kts | 126° |
| 2026-05-06 14:47 | 1.75339 | 102.86946 | 22871 ft | 436 kts | 126° |
| 2026-05-06 14:47 | 1.73654 | 102.89465 | 22869 ft | 435 kts | 120° |
| 2026-05-06 14:47 | 1.72132 | 102.92082 | 22873 ft | 434 kts | 118° |
| 2026-05-06 14:47 | 1.70669 | 102.94722 | 22874 ft | 434 kts | 117° |
| 2026-05-06 14:48 | 1.69233 | 102.97392 | 22882 ft | 434 kts | 117° |
| 2026-05-06 14:48 | 1.67821 | 103.00055 | 22875 ft | 434 kts | 117° |
| 2026-05-06 14:48 | 1.66411 | 103.02727 | 22869 ft | 434 kts | 117° |
| 2026-05-06 14:48 | 1.65018 | 103.05363 | 22872 ft | 434 kts | 117° |
| 2026-05-06 14:49 | 1.63564 | 103.08009 | 22860 ft | 435 kts | 121° |
| 2026-05-06 14:49 | 1.61755 | 103.10436 | 22869 ft | 437 kts | 129° |
| 2026-05-06 14:49 | 1.59608 | 103.12625 | 22446 ft | 443 kts | 136° |
| 2026-05-06 14:49 | 1.57174 | 103.14560 | 21377 ft | 449 kts | 143° |
| 2026-05-06 14:50 | 1.54466 | 103.16191 | 20154 ft | 459 kts | 151° |
| 2026-05-06 14:50 | 1.51531 | 103.17463 | 19256 ft | 460 kts | 159° |
| 2026-05-06 14:50 | 1.48468 | 103.18338 | 18517 ft | 457 kts | 166° |
| 2026-05-06 14:50 | 1.45350 | 103.18870 | 17892 ft | 449 kts | 168° |
| 2026-05-06 14:51 | 1.42424 | 103.19814 | 17231 ft | 438 kts | 154° |
| 2026-05-06 14:51 | 1.39856 | 103.21379 | 16590 ft | 427 kts | 139° |
| 2026-05-06 14:51 | 1.37928 | 103.23532 | 16088 ft | 419 kts | 121° |
| 2026-05-06 14:51 | 1.36786 | 103.26196 | 15889 ft | 417 kts | 103° |
| 2026-05-06 14:52 | 1.36555 | 103.29073 | 15856 ft | 417 kts | 85° |
| 2026-05-06 14:52 | 1.37183 | 103.31902 | 15860 ft | 417 kts | 72° |
| 2026-05-06 14:52 | 1.38155 | 103.34636 | 15857 ft | 417 kts | 70° |
| 2026-05-06 14:52 | 1.39185 | 103.37355 | 15856 ft | 417 kts | 69° |
| 2026-05-06 14:53 | 1.40263 | 103.40049 | 15854 ft | 417 kts | 72° |
| 2026-05-06 14:53 | 1.41125 | 103.42811 | 15857 ft | 417 kts | 73° |
| 2026-05-06 14:53 | 1.41689 | 103.44651 | 15850 ft | 418 kts | 73° |
| 2026-05-06 14:53 | 1.42833 | 103.48376 | 15177 ft | 418 kts | 73° |
| 2026-05-06 14:54 | 1.43406 | 103.50225 | 14589 ft | 419 kts | 73° |
| 2026-05-06 14:54 | 1.44538 | 103.53848 | 13956 ft | 405 kts | 73° |
| 2026-05-06 14:54 | 1.45368 | 103.56497 | 13482 ft | 395 kts | 73° |
| 2026-05-06 14:54 | 1.46181 | 103.59086 | 12996 ft | 385 kts | 73° |
| 2026-05-06 14:55 | 1.46977 | 103.61618 | 12493 ft | 377 kts | 73° |
| 2026-05-06 14:55 | 1.47494 | 103.63263 | 12204 ft | 371 kts | 73° |
| 2026-05-06 14:55 | 1.48504 | 103.66474 | 11892 ft | 353 kts | 73° |
| 2026-05-06 14:55 | 1.48984 | 103.67999 | 11760 ft | 343 kts | 73° |
| 2026-05-06 14:56 | 1.49680 | 103.70234 | 11577 ft | 330 kts | 75° |
| 2026-05-06 14:56 | 1.50087 | 103.72439 | 11388 ft | 314 kts | 84° |
| 2026-05-06 14:56 | 1.50286 | 103.74563 | 11079 ft | 302 kts | 86° |
| 2026-05-06 14:56 | 1.50446 | 103.76644 | 10494 ft | 300 kts | 86° |
| 2026-05-06 14:57 | 1.50604 | 103.78721 | 9901 ft | 299 kts | 86° |
| 2026-05-06 14:57 | 1.50763 | 103.80789 | 9288 ft | 297 kts | 86° |
| 2026-05-06 14:57 | 1.51127 | 103.82807 | 8667 ft | 295 kts | 70° |
| 2026-05-06 14:57 | 1.52052 | 103.84625 | 8060 ft | 293 kts | 59° |
| 2026-05-06 14:58 | 1.53146 | 103.86334 | 7471 ft | 291 kts | 57° |
| 2026-05-06 14:58 | 1.54256 | 103.88012 | 6899 ft | 288 kts | 57° |
| 2026-05-06 14:58 | 1.55346 | 103.89663 | 6334 ft | 286 kts | 57° |
| 2026-05-06 14:58 | 1.56435 | 103.91320 | 5737 ft | 284 kts | 57° |
| 2026-05-06 14:59 | 1.57508 | 103.92974 | 5151 ft | 282 kts | 59° |
| 2026-05-06 14:59 | 1.58247 | 103.94765 | 4566 ft | 279 kts | 81° |
| 2026-05-06 14:59 | 1.58150 | 103.96673 | 3948 ft | 275 kts | 108° |
| 2026-05-06 14:59 | 1.57179 | 103.98282 | 3395 ft | 271 kts | 136° |
| 2026-05-06 15:00 | 1.55722 | 103.99460 | 2968 ft | 269 kts | 145° |
| 2026-05-06 15:00 | 1.54183 | 104.00518 | 2624 ft | 266 kts | 146° |
| 2026-05-06 15:00 | 1.52679 | 104.01535 | 2496 ft | 254 kts | 146° |
| 2026-05-06 15:00 | 1.51268 | 104.02496 | 2487 ft | 237 kts | 146° |
| 2026-05-06 15:01 | 1.49822 | 104.03140 | 2418 ft | 222 kts | 172° |
| 2026-05-06 15:01 | 1.48300 | 104.03142 | 2180 ft | 218 kts | 186° |
| 2026-05-06 15:01 | 1.46840 | 104.02888 | 1924 ft | 208 kts | 197° |
| 2026-05-06 15:01 | 1.45552 | 104.02353 | 1662 ft | 192 kts | 204° |
| 2026-05-06 15:02 | 1.44372 | 104.01833 | 1394 ft | 178 kts | 202° |
| 2026-05-06 15:02 | 1.43276 | 104.01367 | 1185 ft | 164 kts | 202° |
| 2026-05-06 15:02 | 1.42277 | 104.00937 | 983 ft | 153 kts | 203° |
| 2026-05-06 15:02 | 1.41311 | 104.00527 | 811 ft | 156 kts | 202° |
| 2026-05-06 15:03 | 1.40356 | 104.00096 | 616 ft | 145 kts | 205° |
| 2026-05-06 15:03 | 1.39447 | 103.99693 | 419 ft | 145 kts | 203° |
| 2026-05-06 15:03 | 1.38516 | 103.99287 | 255 ft | 147 kts | 203° |
| 2026-05-06 15:03 | 1.37574 | 103.98880 | 105 ft | 148 kts | 205° |
| 2026-05-06 15:04 | 1.36651 | 103.98484 | 33 ft | 128 kts | 202° |
| 2026-05-06 15:04 | 1.36001 | 103.98212 | 31 ft | 76 kts | 202° |
| 2026-05-06 15:04 | 1.35666 | 103.98115 | 34 ft | 32 kts | 181° |
| 2026-05-06 15:04 | 1.35495 | 103.98126 | 32 ft | 22 kts | 174° |
| 2026-05-06 15:05 | 1.35388 | 103.98141 | 30 ft | 8 kts | 182° |
| 2026-05-06 15:05 | 1.35336 | 103.98125 | 30 ft | 7 kts | 207° |
| 2026-05-06 15:05 | 1.35285 | 103.98104 | 30 ft | 13 kts | 201° |
| 2026-05-06 15:05 | 1.35147 | 103.98045 | 30 ft | 28 kts | 205° |
| 2026-05-06 15:06 | 1.34967 | 103.97969 | 30 ft | 28 kts | 202° |
| 2026-05-06 15:06 | 1.34854 | 103.97922 | 29 ft | 14 kts | 201° |
| 2026-05-06 15:06 | 1.34764 | 103.97887 | 29 ft | 14 kts | 212° |
| 2026-05-06 15:06 | 1.34718 | 103.97869 | 29 ft | 4 kts | 190° |
| 2026-05-06 15:07 | 1.34658 | 103.97876 | 28 ft | 13 kts | 141° |
| 2026-05-06 15:07 | 1.34685 | 103.97952 | 28 ft | 15 kts | 44° |
| 2026-05-06 15:07 | 1.34681 | 103.98049 | 28 ft | 15 kts | 117° |
| 2026-05-06 15:07 | 1.34628 | 103.98176 | 28 ft | 24 kts | 111° |
| 2026-05-06 15:08 | 1.34543 | 103.98367 | 28 ft | 34 kts | 113° |
| 2026-05-06 15:08 | 1.34450 | 103.98583 | 28 ft | 34 kts | 113° |
| 2026-05-06 15:08 | 1.34370 | 103.98766 | 28 ft | 23 kts | 112° |
| 2026-05-06 15:08 | 1.34279 | 103.98792 | 29 ft | 14 kts | 201° |
| 2026-05-06 15:09 | 1.34187 | 103.98756 | 29 ft | 14 kts | 201° |
| 2026-05-06 15:09 | 1.34090 | 103.98715 | 28 ft | 16 kts | 214° |
| 2026-05-06 15:09 | 1.34058 | 103.98644 | 28 ft | 9 kts | 230° |
| 2026-05-06 15:09 | 1.34021 | 103.98622 | 28 ft | 5 kts | 201° |
| 2026-05-06 15:10 | 1.33984 | 103.98606 | 28 ft | 10 kts | 207° |
| 2026-05-06 15:10 | 1.33890 | 103.98566 | 28 ft | 14 kts | 201° |
| 2026-05-06 15:10 | 1.33861 | 103.98544 | 28 ft | 2 kts | 261° |
| 2026-05-06 15:10 | 1.33867 | 103.98532 | 28 ft | 5 kts | 293° |
| 2026-05-06 15:11 | 1.33880 | 103.98502 | 28 ft | 2 kts | 291° |
| 2026-05-06 15:11 | 1.33880 | 103.98501 | 28 ft | 0 kts | 291° |